sensor_id;sensor_type;location;lat;lon;timestamp;pressure;altitude;pressure_sealevel;temperature;humidity
42859;BME280;28505;56.970;40.998;2023-09-08T00:00:19;100012.63;;;7.69;100.00
42859;BME280;28505;56.970;40.998;2023-09-08T00:05:41;100018.00;;;7.64;100.00
42859;BME280;28505;56.970;40.998;2023-09-08T00:11:03;100018.25;;;7.67;100.00
42859;BME280;28505;56.970;40.998;2023-09-08T00:16:28;100011.56;;;7.65;100.00
42859;BME280;28505;56.970;40.998;2023-09-08T00:21:51;100020.13;;;7.62;100.00
42859;BME280;28505;56.970;40.998;2023-09-08T00:27:13;100014.19;;;7.80;100.00
42859;BME280;28505;56.970;40.998;2023-09-08T00:32:35;100019.31;;;7.77;100.00
42859;BME280;28505;56.970;40.998;2023-09-08T00:38:00;100020.38;;;7.86;100.00
42859;BME280;28505;56.970;40.998;2023-09-08T00:43:22;100004.25;;;7.81;100.00
42859;BME280;28505;56.970;40.998;2023-09-08T00:48:44;100008.31;;;7.68;100.00
42859;BME280;28505;56.970;40.998;2023-09-08T00:54:09;100003.97;;;7.87;100.00
42859;BME280;28505;56.970;40.998;2023-09-08T00:59:32;99994.88;;;7.88;100.00
42859;BME280;28505;56.970;40.998;2023-09-08T01:04:55;99985.28;;;7.57;100.00
42859;BME280;28505;56.970;40.998;2023-09-08T01:10:17;99978.25;;;7.76;100.00
42859;BME280;28505;56.970;40.998;2023-09-08T01:15:39;99973.47;;;7.63;100.00
42859;BME280;28505;56.970;40.998;2023-09-08T01:26:34;99931.88;;;7.60;100.00
42859;BME280;28505;56.970;40.998;2023-09-08T01:31:57;99941.78;;;7.75;100.00
42859;BME280;28505;56.970;40.998;2023-09-08T01:37:22;99937.25;;;7.60;100.00
42859;BME280;28505;56.970;40.998;2023-09-08T01:42:44;99941.25;;;7.73;100.00
42859;BME280;28505;56.970;40.998;2023-09-08T01:48:06;99936.41;;;7.70;100.00
42859;BME280;28505;56.970;40.998;2023-09-08T01:53:28;99919.28;;;7.66;100.00
42859;BME280;28505;56.970;40.998;2023-09-08T01:58:50;99921.16;;;7.65;100.00
42859;BME280;28505;56.970;40.998;2023-09-08T02:04:12;99911.22;;;7.61;100.00
42859;BME280;28505;56.970;40.998;2023-09-08T02:09:36;99898.91;;;7.55;100.00
42859;BME280;28505;56.970;40.998;2023-09-08T02:15:00;99889.25;;;7.59;100.00
42859;BME280;28505;56.970;40.998;2023-09-08T02:20:24;99885.06;;;7.87;100.00
42859;BME280;28505;56.970;40.998;2023-09-08T02:25:46;99870.06;;;7.81;100.00
42859;BME280;28505;56.970;40.998;2023-09-08T02:31:10;99880.88;;;7.70;100.00
42859;BME280;28505;56.970;40.998;2023-09-08T02:36:34;99865.75;;;7.90;100.00
42859;BME280;28505;56.970;40.998;2023-09-08T02:41:56;99868.47;;;7.85;100.00
42859;BME280;28505;56.970;40.998;2023-09-08T02:47:18;99861.16;;;7.90;100.00
42859;BME280;28505;56.970;40.998;2023-09-08T02:52:40;99847.50;;;7.87;100.00
42859;BME280;28505;56.970;40.998;2023-09-08T02:58:02;99833.00;;;7.88;100.00
42859;BME280;28505;56.970;40.998;2023-09-08T03:03:23;99832.66;;;8.00;100.00
42859;BME280;28505;56.970;40.998;2023-09-08T03:08:46;99845.53;;;8.03;100.00
42859;BME280;28505;56.970;40.998;2023-09-08T03:14:08;99821.66;;;8.01;100.00
42859;BME280;28505;56.970;40.998;2023-09-08T03:19:30;99835.81;;;8.12;100.00
42859;BME280;28505;56.970;40.998;2023-09-08T03:24:52;99829.09;;;8.09;100.00
42859;BME280;28505;56.970;40.998;2023-09-08T03:30:15;99823.16;;;8.17;100.00
42859;BME280;28505;56.970;40.998;2023-09-08T03:35:37;99822.06;;;8.18;100.00
42859;BME280;28505;56.970;40.998;2023-09-08T03:41:00;99811.09;;;8.10;100.00
42859;BME280;28505;56.970;40.998;2023-09-08T03:46:22;99800.66;;;8.08;100.00
42859;BME280;28505;56.970;40.998;2023-09-08T03:51:47;99807.84;;;8.18;100.00
42859;BME280;28505;56.970;40.998;2023-09-08T03:57:09;99810.44;;;8.28;100.00
42859;BME280;28505;56.970;40.998;2023-09-08T04:02:31;99811.63;;;8.12;100.00
42859;BME280;28505;56.970;40.998;2023-09-08T04:07:54;99806.56;;;8.44;100.00
42859;BME280;28505;56.970;40.998;2023-09-08T04:13:16;99799.78;;;8.52;100.00
42859;BME280;28505;56.970;40.998;2023-09-08T04:18:38;99791.78;;;8.47;100.00
42859;BME280;28505;56.970;40.998;2023-09-08T04:24:01;99789.19;;;8.32;100.00
42859;BME280;28505;56.970;40.998;2023-09-08T04:29:23;99775.41;;;8.43;100.00
42859;BME280;28505;56.970;40.998;2023-09-08T04:34:45;99773.25;;;8.46;100.00
42859;BME280;28505;56.970;40.998;2023-09-08T04:40:07;99769.78;;;8.40;100.00
42859;BME280;28505;56.970;40.998;2023-09-08T04:45:30;99780.38;;;8.26;100.00
42859;BME280;28505;56.970;40.998;2023-09-08T04:50:53;99780.94;;;8.57;100.00
42859;BME280;28505;56.970;40.998;2023-09-08T04:56:15;99776.69;;;8.75;100.00
42859;BME280;28505;56.970;40.998;2023-09-08T05:01:37;99766.63;;;8.86;100.00
42859;BME280;28505;56.970;40.998;2023-09-08T05:07:00;99769.09;;;9.06;100.00
42859;BME280;28505;56.970;40.998;2023-09-08T05:12:22;99770.06;;;8.91;100.00
42859;BME280;28505;56.970;40.998;2023-09-08T05:17:45;99752.47;;;8.80;100.00
42859;BME280;28505;56.970;40.998;2023-09-08T05:23:10;99758.69;;;9.00;100.00
42859;BME280;28505;56.970;40.998;2023-09-08T05:28:32;99751.91;;;8.83;100.00
42859;BME280;28505;56.970;40.998;2023-09-08T05:33:59;99752.66;;;8.60;100.00
42859;BME280;28505;56.970;40.998;2023-09-08T05:39:23;99756.66;;;8.38;100.00
42859;BME280;28505;56.970;40.998;2023-09-08T05:44:46;99753.16;;;8.67;100.00
42859;BME280;28505;56.970;40.998;2023-09-08T05:50:10;99746.84;;;8.53;100.00
42859;BME280;28505;56.970;40.998;2023-09-08T05:55:34;99753.25;;;8.57;100.00
42859;BME280;28505;56.970;40.998;2023-09-08T06:00:56;99741.53;;;8.48;100.00
42859;BME280;28505;56.970;40.998;2023-09-08T06:06:18;99743.56;;;8.27;100.00
42859;BME280;28505;56.970;40.998;2023-09-08T06:11:40;99731.78;;;8.23;100.00
42859;BME280;28505;56.970;40.998;2023-09-08T06:17:04;99719.06;;;8.33;100.00
42859;BME280;28505;56.970;40.998;2023-09-08T06:22:26;99717.19;;;8.05;100.00
42859;BME280;28505;56.970;40.998;2023-09-08T06:27:48;99717.97;;;8.39;100.00
42859;BME280;28505;56.970;40.998;2023-09-08T06:33:11;99724.94;;;8.40;100.00
42859;BME280;28505;56.970;40.998;2023-09-08T06:38:33;99711.69;;;8.73;100.00
42859;BME280;28505;56.970;40.998;2023-09-08T06:43:56;99713.91;;;8.66;100.00
42859;BME280;28505;56.970;40.998;2023-09-08T06:49:21;99703.91;;;8.72;100.00
42859;BME280;28505;56.970;40.998;2023-09-08T06:54:43;99704.13;;;8.99;100.00
42859;BME280;28505;56.970;40.998;2023-09-08T07:00:07;99705.06;;;8.89;100.00
42859;BME280;28505;56.970;40.998;2023-09-08T07:05:30;99704.88;;;8.81;100.00
42859;BME280;28505;56.970;40.998;2023-09-08T07:10:52;99718.41;;;8.95;100.00
42859;BME280;28505;56.970;40.998;2023-09-08T07:16:16;99715.97;;;8.74;100.00
42859;BME280;28505;56.970;40.998;2023-09-08T07:21:38;99724.88;;;8.70;100.00
42859;BME280;28505;56.970;40.998;2023-09-08T07:27:00;99731.97;;;8.84;100.00
42859;BME280;28505;56.970;40.998;2023-09-08T07:32:23;99733.09;;;8.83;100.00
42859;BME280;28505;56.970;40.998;2023-09-08T07:37:46;99724.75;;;9.04;100.00
42859;BME280;28505;56.970;40.998;2023-09-08T07:43:09;99731.41;;;8.87;100.00
42859;BME280;28505;56.970;40.998;2023-09-08T07:48:31;99724.03;;;8.74;100.00
42859;BME280;28505;56.970;40.998;2023-09-08T07:53:54;99731.91;;;8.36;100.00
42859;BME280;28505;56.970;40.998;2023-09-08T07:59:17;99739.53;;;8.82;100.00
42859;BME280;28505;56.970;40.998;2023-09-08T08:04:39;99737.03;;;8.67;100.00
42859;BME280;28505;56.970;40.998;2023-09-08T08:10:01;99752.19;;;9.81;100.00
42859;BME280;28505;56.970;40.998;2023-09-08T08:15:35;99751.31;;;9.67;100.00
42859;BME280;28505;56.970;40.998;2023-09-08T08:20:59;99753.56;;;9.79;100.00
42859;BME280;28505;56.970;40.998;2023-09-08T08:26:21;99747.47;;;9.54;100.00
42859;BME280;28505;56.970;40.998;2023-09-08T08:31:43;99739.41;;;10.06;100.00
42859;BME280;28505;56.970;40.998;2023-09-08T08:37:05;99748.41;;;9.82;100.00
42859;BME280;28505;56.970;40.998;2023-09-08T08:42:32;99743.03;;;9.64;100.00
42859;BME280;28505;56.970;40.998;2023-09-08T08:47:56;99752.34;;;8.90;100.00
42859;BME280;28505;56.970;40.998;2023-09-08T08:53:20;99754.59;;;9.02;100.00
42859;BME280;28505;56.970;40.998;2023-09-08T08:58:42;99762.44;;;9.23;100.00
42859;BME280;28505;56.970;40.998;2023-09-08T09:04:05;99760.63;;;9.37;100.00
42859;BME280;28505;56.970;40.998;2023-09-08T09:09:28;99752.34;;;9.33;100.00
42859;BME280;28505;56.970;40.998;2023-09-08T09:14:54;99781.97;;;9.09;100.00
42859;BME280;28505;56.970;40.998;2023-09-08T09:20:18;99780.69;;;9.26;100.00
42859;BME280;28505;56.970;40.998;2023-09-08T09:25:42;99784.66;;;9.52;100.00
42859;BME280;28505;56.970;40.998;2023-09-08T09:31:05;99789.34;;;9.42;100.00
42859;BME280;28505;56.970;40.998;2023-09-08T09:36:27;99796.94;;;9.40;100.00
42859;BME280;28505;56.970;40.998;2023-09-08T09:41:54;99788.28;;;9.61;100.00
42859;BME280;28505;56.970;40.998;2023-09-08T09:47:17;99808.50;;;9.59;100.00
42859;BME280;28505;56.970;40.998;2023-09-08T09:52:39;99809.47;;;9.68;100.00
42859;BME280;28505;56.970;40.998;2023-09-08T09:58:01;99808.00;;;9.95;100.00
42859;BME280;28505;56.970;40.998;2023-09-08T10:03:25;99812.44;;;10.04;100.00
42859;BME280;28505;56.970;40.998;2023-09-08T10:08:48;99824.91;;;9.81;100.00
42859;BME280;28505;56.970;40.998;2023-09-08T10:14:12;99828.97;;;9.98;100.00
42859;BME280;28505;56.970;40.998;2023-09-08T10:19:36;99823.44;;;9.89;100.00
42859;BME280;28505;56.970;40.998;2023-09-08T10:25:08;99833.16;;;9.66;100.00
42859;BME280;28505;56.970;40.998;2023-09-08T10:30:30;99829.63;;;10.27;100.00
42859;BME280;28505;56.970;40.998;2023-09-08T10:35:53;99826.53;;;10.34;100.00
42859;BME280;28505;56.970;40.998;2023-09-08T10:46:39;99826.69;;;9.86;100.00
42859;BME280;28505;56.970;40.998;2023-09-08T10:52:08;99835.09;;;9.84;100.00
42859;BME280;28505;56.970;40.998;2023-09-08T10:57:33;99842.84;;;9.86;100.00
42859;BME280;28505;56.970;40.998;2023-09-08T11:02:55;99833.91;;;10.61;100.00
42859;BME280;28505;56.970;40.998;2023-09-08T11:08:18;99845.88;;;10.69;100.00
42859;BME280;28505;56.970;40.998;2023-09-08T11:13:40;99843.28;;;10.12;100.00
42859;BME280;28505;56.970;40.998;2023-09-08T11:19:02;99845.63;;;10.38;100.00
42859;BME280;28505;56.970;40.998;2023-09-08T11:24:26;99849.34;;;10.04;100.00
42859;BME280;28505;56.970;40.998;2023-09-08T11:29:49;99867.59;;;9.88;100.00
42859;BME280;28505;56.970;40.998;2023-09-08T11:35:12;99868.03;;;9.95;100.00
42859;BME280;28505;56.970;40.998;2023-09-08T11:40:35;99860.47;;;11.28;100.00
42859;BME280;28505;56.970;40.998;2023-09-08T11:45:58;99857.97;;;10.71;100.00
42859;BME280;28505;56.970;40.998;2023-09-08T11:51:25;99862.66;;;10.66;100.00
42859;BME280;28505;56.970;40.998;2023-09-08T11:56:47;99878.72;;;10.57;100.00
42859;BME280;28505;56.970;40.998;2023-09-08T12:02:09;99887.94;;;10.37;100.00
42859;BME280;28505;56.970;40.998;2023-09-08T12:07:31;99885.78;;;9.96;100.00
42859;BME280;28505;56.970;40.998;2023-09-08T12:12:54;99886.53;;;10.21;100.00
42859;BME280;28505;56.970;40.998;2023-09-08T12:18:37;99892.31;;;11.40;100.00
42859;BME280;28505;56.970;40.998;2023-09-08T12:23:59;99888.84;;;11.25;100.00
42859;BME280;28505;56.970;40.998;2023-09-08T12:29:21;99878.78;;;10.85;100.00
42859;BME280;28505;56.970;40.998;2023-09-08T12:34:45;99893.97;;;10.81;100.00
42859;BME280;28505;56.970;40.998;2023-09-08T12:40:07;99895.63;;;11.37;100.00
42859;BME280;28505;56.970;40.998;2023-09-08T12:45:32;99895.94;;;12.27;100.00
42859;BME280;28505;56.970;40.998;2023-09-08T12:50:54;99897.41;;;11.00;100.00
42859;BME280;28505;56.970;40.998;2023-09-08T12:56:17;99900.34;;;10.85;100.00
42859;BME280;28505;56.970;40.998;2023-09-08T13:01:39;99907.50;;;10.75;100.00
42859;BME280;28505;56.970;40.998;2023-09-08T13:07:01;99915.59;;;10.43;100.00
42859;BME280;28505;56.970;40.998;2023-09-08T13:12:24;99929.06;;;10.24;100.00
42859;BME280;28505;56.970;40.998;2023-09-08T13:17:46;99936.97;;;10.15;100.00
42859;BME280;28505;56.970;40.998;2023-09-08T13:23:08;99930.59;;;10.49;100.00
42859;BME280;28505;56.970;40.998;2023-09-08T13:28:30;99943.19;;;10.53;100.00
42859;BME280;28505;56.970;40.998;2023-09-08T13:33:52;99956.88;;;10.76;100.00
42859;BME280;28505;56.970;40.998;2023-09-08T13:39:14;99952.75;;;11.11;100.00
42859;BME280;28505;56.970;40.998;2023-09-08T13:44:37;99953.91;;;10.91;100.00
42859;BME280;28505;56.970;40.998;2023-09-08T13:50:00;99958.25;;;10.73;100.00
42859;BME280;28505;56.970;40.998;2023-09-08T13:55:27;99964.66;;;11.10;100.00
42859;BME280;28505;56.970;40.998;2023-09-08T14:00:59;99982.44;;;11.71;100.00
42859;BME280;28505;56.970;40.998;2023-09-08T14:06:29;99976.63;;;11.04;100.00
42859;BME280;28505;56.970;40.998;2023-09-08T14:12:00;99989.09;;;10.67;100.00
42859;BME280;28505;56.970;40.998;2023-09-08T14:17:24;99995.06;;;10.64;100.00
42859;BME280;28505;56.970;40.998;2023-09-08T14:22:46;100000.03;;;10.57;100.00
42859;BME280;28505;56.970;40.998;2023-09-08T14:28:09;100001.38;;;10.36;100.00
42859;BME280;28505;56.970;40.998;2023-09-08T14:33:31;100005.25;;;10.29;100.00
42859;BME280;28505;56.970;40.998;2023-09-08T14:38:53;99998.91;;;9.96;100.00
42859;BME280;28505;56.970;40.998;2023-09-08T14:44:17;100010.03;;;9.66;100.00
42859;BME280;28505;56.970;40.998;2023-09-08T14:49:39;100019.00;;;9.56;100.00
42859;BME280;28505;56.970;40.998;2023-09-08T14:55:01;100026.28;;;9.79;100.00
42859;BME280;28505;56.970;40.998;2023-09-08T15:00:23;100032.13;;;9.87;100.00
42859;BME280;28505;56.970;40.998;2023-09-08T15:05:47;100040.88;;;9.73;100.00
42859;BME280;28505;56.970;40.998;2023-09-08T15:11:10;100045.72;;;9.76;100.00
42859;BME280;28505;56.970;40.998;2023-09-08T15:16:32;100054.41;;;9.39;100.00
42859;BME280;28505;56.970;40.998;2023-09-08T15:21:54;100057.94;;;9.34;100.00
42859;BME280;28505;56.970;40.998;2023-09-08T15:27:16;100067.53;;;9.46;100.00
42859;BME280;28505;56.970;40.998;2023-09-08T15:32:38;100070.25;;;9.46;100.00
42859;BME280;28505;56.970;40.998;2023-09-08T15:38:00;100073.19;;;9.73;100.00
42859;BME280;28505;56.970;40.998;2023-09-08T15:43:22;100087.78;;;9.67;100.00
42859;BME280;28505;56.970;40.998;2023-09-08T15:48:44;100090.44;;;9.72;100.00
42859;BME280;28505;56.970;40.998;2023-09-08T15:54:06;100095.25;;;9.46;100.00
42859;BME280;28505;56.970;40.998;2023-09-08T15:59:29;100102.53;;;9.46;100.00
42859;BME280;28505;56.970;40.998;2023-09-08T16:04:52;100102.44;;;9.56;100.00
42859;BME280;28505;56.970;40.998;2023-09-08T16:10:24;100118.75;;;9.35;100.00
42859;BME280;28505;56.970;40.998;2023-09-08T16:15:46;100128.28;;;9.18;100.00
42859;BME280;28505;56.970;40.998;2023-09-08T16:21:08;100143.34;;;9.19;100.00
42859;BME280;28505;56.970;40.998;2023-09-08T16:26:30;100147.22;;;9.42;100.00
42859;BME280;28505;56.970;40.998;2023-09-08T16:31:52;100152.84;;;9.45;100.00
42859;BME280;28505;56.970;40.998;2023-09-08T16:37:14;100158.91;;;9.61;100.00
42859;BME280;28505;56.970;40.998;2023-09-08T16:42:36;100160.25;;;9.24;100.00
42859;BME280;28505;56.970;40.998;2023-09-08T16:47:58;100170.69;;;9.36;100.00
42859;BME280;28505;56.970;40.998;2023-09-08T16:53:20;100174.34;;;9.50;100.00
42859;BME280;28505;56.970;40.998;2023-09-08T16:58:42;100188.00;;;9.59;100.00
42859;BME280;28505;56.970;40.998;2023-09-08T17:04:04;100190.06;;;9.33;100.00
42859;BME280;28505;56.970;40.998;2023-09-08T17:09:27;100196.19;;;9.44;100.00
42859;BME280;28505;56.970;40.998;2023-09-08T17:14:49;100184.84;;;9.47;100.00
42859;BME280;28505;56.970;40.998;2023-09-08T17:20:12;100190.41;;;9.21;100.00
42859;BME280;28505;56.970;40.998;2023-09-08T17:25:34;100194.03;;;9.46;100.00
42859;BME280;28505;56.970;40.998;2023-09-08T17:30:57;100188.50;;;9.27;100.00
42859;BME280;28505;56.970;40.998;2023-09-08T17:36:19;100195.75;;;9.26;100.00
42859;BME280;28505;56.970;40.998;2023-09-08T17:41:41;100199.72;;;9.39;100.00
42859;BME280;28505;56.970;40.998;2023-09-08T17:47:05;100208.84;;;9.38;100.00
42859;BME280;28505;56.970;40.998;2023-09-08T17:52:27;100204.56;;;9.37;100.00
42859;BME280;28505;56.970;40.998;2023-09-08T17:57:50;100213.50;;;9.27;100.00
42859;BME280;28505;56.970;40.998;2023-09-08T18:03:12;100207.81;;;9.34;100.00
42859;BME280;28505;56.970;40.998;2023-09-08T18:08:37;100216.47;;;9.26;100.00
42859;BME280;28505;56.970;40.998;2023-09-08T18:14:00;100216.47;;;9.26;100.00
42859;BME280;28505;56.970;40.998;2023-09-08T18:19:22;100214.28;;;9.28;100.00
42859;BME280;28505;56.970;40.998;2023-09-08T18:24:44;100214.59;;;9.21;100.00
42859;BME280;28505;56.970;40.998;2023-09-08T18:30:07;100216.25;;;9.12;100.00
42859;BME280;28505;56.970;40.998;2023-09-08T18:35:30;100227.78;;;9.23;100.00
42859;BME280;28505;56.970;40.998;2023-09-08T18:40:54;100223.41;;;9.37;100.00
42859;BME280;28505;56.970;40.998;2023-09-08T18:46:16;100235.81;;;9.28;100.00
42859;BME280;28505;56.970;40.998;2023-09-08T18:51:39;100232.31;;;9.27;100.00
42859;BME280;28505;56.970;40.998;2023-09-08T18:57:01;100232.44;;;9.07;100.00
42859;BME280;28505;56.970;40.998;2023-09-08T19:02:23;100230.50;;;9.18;100.00
42859;BME280;28505;56.970;40.998;2023-09-08T19:07:46;100239.53;;;9.37;100.00
42859;BME280;28505;56.970;40.998;2023-09-08T19:13:10;100240.41;;;9.27;100.00
42859;BME280;28505;56.970;40.998;2023-09-08T19:18:33;100252.06;;;9.12;100.00
42859;BME280;28505;56.970;40.998;2023-09-08T19:23:55;100252.00;;;9.18;100.00
42859;BME280;28505;56.970;40.998;2023-09-08T19:29:17;100256.03;;;9.20;100.00
42859;BME280;28505;56.970;40.998;2023-09-08T19:34:40;100254.69;;;9.23;100.00
42859;BME280;28505;56.970;40.998;2023-09-08T19:40:04;100262.78;;;9.18;100.00
42859;BME280;28505;56.970;40.998;2023-09-08T19:45:26;100258.69;;;9.30;100.00
42859;BME280;28505;56.970;40.998;2023-09-08T19:50:48;100257.44;;;9.07;100.00
42859;BME280;28505;56.970;40.998;2023-09-08T19:56:10;100270.53;;;9.29;100.00
42859;BME280;28505;56.970;40.998;2023-09-08T20:01:34;100277.00;;;9.23;100.00
42859;BME280;28505;56.970;40.998;2023-09-08T20:06:57;100274.09;;;9.14;100.00
42859;BME280;28505;56.970;40.998;2023-09-08T20:12:19;100278.06;;;9.27;100.00
42859;BME280;28505;56.970;40.998;2023-09-08T20:17:41;100285.13;;;9.13;100.00
42859;BME280;28505;56.970;40.998;2023-09-08T20:23:05;100294.28;;;9.07;100.00
42859;BME280;28505;56.970;40.998;2023-09-08T20:28:27;100293.75;;;9.10;100.00
42859;BME280;28505;56.970;40.998;2023-09-08T20:33:49;100297.50;;;9.09;100.00
42859;BME280;28505;56.970;40.998;2023-09-08T20:39:11;100288.94;;;9.02;100.00
42859;BME280;28505;56.970;40.998;2023-09-08T20:44:33;100305.63;;;8.94;100.00
42859;BME280;28505;56.970;40.998;2023-09-08T20:49:55;100309.38;;;8.93;100.00
42859;BME280;28505;56.970;40.998;2023-09-08T20:55:18;100317.13;;;9.14;100.00
42859;BME280;28505;56.970;40.998;2023-09-08T21:00:40;100315.22;;;9.20;100.00
42859;BME280;28505;56.970;40.998;2023-09-08T21:06:02;100313.63;;;9.09;100.00
42859;BME280;28505;56.970;40.998;2023-09-08T21:11:24;100313.13;;;9.02;100.00
42859;BME280;28505;56.970;40.998;2023-09-08T21:16:46;100315.31;;;9.00;100.00
42859;BME280;28505;56.970;40.998;2023-09-08T21:22:08;100321.41;;;9.21;100.00
42859;BME280;28505;56.970;40.998;2023-09-08T21:27:30;100324.69;;;9.12;100.00
42859;BME280;28505;56.970;40.998;2023-09-08T21:32:52;100323.84;;;9.12;100.00
42859;BME280;28505;56.970;40.998;2023-09-08T21:38:14;100329.22;;;9.12;100.00
42859;BME280;28505;56.970;40.998;2023-09-08T21:43:38;100330.84;;;9.08;100.00
42859;BME280;28505;56.970;40.998;2023-09-08T21:49:00;100336.56;;;8.91;100.00
42859;BME280;28505;56.970;40.998;2023-09-08T21:54:24;100350.78;;;9.02;100.00
42859;BME280;28505;56.970;40.998;2023-09-08T21:59:46;100340.31;;;9.00;100.00
42859;BME280;28505;56.970;40.998;2023-09-08T22:05:08;100336.78;;;9.05;100.00
42859;BME280;28505;56.970;40.998;2023-09-08T22:10:31;100336.28;;;8.93;100.00
42859;BME280;28505;56.970;40.998;2023-09-08T22:15:53;100350.03;;;8.71;100.00
42859;BME280;28505;56.970;40.998;2023-09-08T22:21:16;100347.63;;;8.59;100.00
42859;BME280;28505;56.970;40.998;2023-09-08T22:26:38;100338.22;;;8.77;100.00
42859;BME280;28505;56.970;40.998;2023-09-08T22:32:00;100342.53;;;8.42;100.00
42859;BME280;28505;56.970;40.998;2023-09-08T22:37:22;100351.06;;;8.13;100.00
42859;BME280;28505;56.970;40.998;2023-09-08T22:42:44;100362.38;;;8.05;100.00
42859;BME280;28505;56.970;40.998;2023-09-08T22:48:06;100368.28;;;8.17;100.00
42859;BME280;28505;56.970;40.998;2023-09-08T22:53:28;100372.22;;;7.69;100.00
42859;BME280;28505;56.970;40.998;2023-09-08T22:58:50;100360.94;;;7.72;100.00
42859;BME280;28505;56.970;40.998;2023-09-08T23:04:12;100378.19;;;8.07;100.00
42859;BME280;28505;56.970;40.998;2023-09-08T23:09:34;100379.63;;;7.46;100.00
42859;BME280;28505;56.970;40.998;2023-09-08T23:14:56;100389.66;;;7.14;100.00
42859;BME280;28505;56.970;40.998;2023-09-08T23:20:18;100387.97;;;6.97;100.00
42859;BME280;28505;56.970;40.998;2023-09-08T23:25:40;100372.84;;;7.28;100.00
42859;BME280;28505;56.970;40.998;2023-09-08T23:31:02;100382.16;;;7.16;100.00
42859;BME280;28505;56.970;40.998;2023-09-08T23:36:25;100394.81;;;6.46;100.00
42859;BME280;28505;56.970;40.998;2023-09-08T23:41:48;100397.72;;;7.14;100.00
42859;BME280;28505;56.970;40.998;2023-09-08T23:47:10;100409.22;;;6.72;100.00
42859;BME280;28505;56.970;40.998;2023-09-08T23:52:33;100411.22;;;6.54;100.00
42859;BME280;28505;56.970;40.998;2023-09-08T23:57:55;100404.44;;;6.79;100.00
